sensor_id;sensor_type;location;lat;lon;timestamp;temperature;humidity
71142;DHT22;58808;59.366;17.970;2022-10-16T00:01:16;12.90;99.90
71142;DHT22;58808;59.366;17.970;2022-10-16T00:03:43;12.90;99.90
71142;DHT22;58808;59.366;17.970;2022-10-16T00:06:09;12.90;99.90
71142;DHT22;58808;59.366;17.970;2022-10-16T00:08:36;12.80;99.90
71142;DHT22;58808;59.366;17.970;2022-10-16T00:11:05;12.80;99.90
71142;DHT22;58808;59.366;17.970;2022-10-16T00:13:32;12.80;99.90
71142;DHT22;58808;59.366;17.970;2022-10-16T00:16:00;12.80;99.90
71142;DHT22;58808;59.366;17.970;2022-10-16T00:18:27;12.80;99.90
71142;DHT22;58808;59.366;17.970;2022-10-16T00:20:53;12.80;99.90
71142;DHT22;58808;59.366;17.970;2022-10-16T00:23:19;12.80;99.90
71142;DHT22;58808;59.366;17.970;2022-10-16T00:25:54;12.80;99.90
71142;DHT22;58808;59.366;17.970;2022-10-16T00:28:21;12.80;99.90
71142;DHT22;58808;59.366;17.970;2022-10-16T00:30:46;12.70;99.90
71142;DHT22;58808;59.366;17.970;2022-10-16T00:33:12;12.70;99.90
71142;DHT22;58808;59.366;17.970;2022-10-16T00:35:38;12.70;99.90
71142;DHT22;58808;59.366;17.970;2022-10-16T00:38:03;12.70;99.90
71142;DHT22;58808;59.366;17.970;2022-10-16T00:40:29;12.70;99.90
71142;DHT22;58808;59.366;17.970;2022-10-16T00:42:54;12.70;99.90
71142;DHT22;58808;59.366;17.970;2022-10-16T00:45:20;12.70;99.90
71142;DHT22;58808;59.366;17.970;2022-10-16T00:47:46;12.70;99.90
71142;DHT22;58808;59.366;17.970;2022-10-16T00:50:30;12.70;99.90
71142;DHT22;58808;59.366;17.970;2022-10-16T00:52:58;12.70;99.90
71142;DHT22;58808;59.366;17.970;2022-10-16T00:55:24;12.60;99.90
71142;DHT22;58808;59.366;17.970;2022-10-16T00:57:51;12.60;99.90
71142;DHT22;58808;59.366;17.970;2022-10-16T01:00:23;12.60;99.90
71142;DHT22;58808;59.366;17.970;2022-10-16T01:02:55;12.60;99.90
71142;DHT22;58808;59.366;17.970;2022-10-16T01:05:22;12.60;99.90
71142;DHT22;58808;59.366;17.970;2022-10-16T01:08:26;12.60;99.90
71142;DHT22;58808;59.366;17.970;2022-10-16T01:10:59;12.60;99.90
71142;DHT22;58808;59.366;17.970;2022-10-16T01:13:33;12.60;99.90
71142;DHT22;58808;59.366;17.970;2022-10-16T01:18:30;12.60;99.90
71142;DHT22;58808;59.366;17.970;2022-10-16T01:21:02;12.60;99.90
71142;DHT22;58808;59.366;17.970;2022-10-16T01:31:36;12.60;99.90
71142;DHT22;58808;59.366;17.970;2022-10-16T01:34:13;12.60;99.90
71142;DHT22;58808;59.366;17.970;2022-10-16T01:36:45;12.60;99.90
71142;DHT22;58808;59.366;17.970;2022-10-16T01:39:12;12.50;99.90
71142;DHT22;58808;59.366;17.970;2022-10-16T01:41:46;12.50;99.90
71142;DHT22;58808;59.366;17.970;2022-10-16T01:44:22;12.60;99.90
71142;DHT22;58808;59.366;17.970;2022-10-16T01:46:52;12.60;99.90
71142;DHT22;58808;59.366;17.970;2022-10-16T01:49:19;12.60;99.90
71142;DHT22;58808;59.366;17.970;2022-10-16T01:51:48;12.60;99.90
71142;DHT22;58808;59.366;17.970;2022-10-16T01:54:17;12.60;99.90
71142;DHT22;58808;59.366;17.970;2022-10-16T01:56:46;12.60;99.90
71142;DHT22;58808;59.366;17.970;2022-10-16T01:59:16;12.60;99.90
71142;DHT22;58808;59.366;17.970;2022-10-16T02:01:48;12.60;99.90
71142;DHT22;58808;59.366;17.970;2022-10-16T02:06:43;12.60;99.90
71142;DHT22;58808;59.366;17.970;2022-10-16T02:09:09;12.60;99.90
71142;DHT22;58808;59.366;17.970;2022-10-16T02:11:35;12.60;99.90
71142;DHT22;58808;59.366;17.970;2022-10-16T02:14:04;12.60;99.90
71142;DHT22;58808;59.366;17.970;2022-10-16T02:16:35;12.60;99.90
71142;DHT22;58808;59.366;17.970;2022-10-16T02:19:02;12.60;99.90
71142;DHT22;58808;59.366;17.970;2022-10-16T02:21:56;12.60;99.90
71142;DHT22;58808;59.366;17.970;2022-10-16T02:24:58;12.60;99.90
71142;DHT22;58808;59.366;17.970;2022-10-16T02:27:41;12.60;99.90
71142;DHT22;58808;59.366;17.970;2022-10-16T02:30:17;12.60;99.90
71142;DHT22;58808;59.366;17.970;2022-10-16T02:32:46;12.60;99.90
71142;DHT22;58808;59.366;17.970;2022-10-16T02:35:18;12.70;99.90
71142;DHT22;58808;59.366;17.970;2022-10-16T02:37:44;12.70;99.90
71142;DHT22;58808;59.366;17.970;2022-10-16T02:40:11;12.60;99.90
71142;DHT22;58808;59.366;17.970;2022-10-16T02:42:39;12.60;99.90
71142;DHT22;58808;59.366;17.970;2022-10-16T02:45:06;12.60;99.90
71142;DHT22;58808;59.366;17.970;2022-10-16T02:47:32;12.60;99.90
71142;DHT22;58808;59.366;17.970;2022-10-16T02:49:58;12.60;99.90
71142;DHT22;58808;59.366;17.970;2022-10-16T02:52:24;12.60;99.90
71142;DHT22;58808;59.366;17.970;2022-10-16T02:54:50;12.60;99.90
71142;DHT22;58808;59.366;17.970;2022-10-16T02:57:15;12.60;99.90
71142;DHT22;58808;59.366;17.970;2022-10-16T02:59:51;12.60;99.90
71142;DHT22;58808;59.366;17.970;2022-10-16T03:02:17;12.60;99.90
71142;DHT22;58808;59.366;17.970;2022-10-16T03:04:42;12.60;99.90
71142;DHT22;58808;59.366;17.970;2022-10-16T03:07:08;12.60;99.90
71142;DHT22;58808;59.366;17.970;2022-10-16T03:09:34;12.60;99.90
71142;DHT22;58808;59.366;17.970;2022-10-16T03:11:59;12.60;99.90
71142;DHT22;58808;59.366;17.970;2022-10-16T03:14:25;12.60;99.90
71142;DHT22;58808;59.366;17.970;2022-10-16T03:16:51;12.60;99.90
71142;DHT22;58808;59.366;17.970;2022-10-16T03:19:21;12.60;99.90
71142;DHT22;58808;59.366;17.970;2022-10-16T03:21:47;12.60;99.90
71142;DHT22;58808;59.366;17.970;2022-10-16T03:24:13;12.60;99.90
71142;DHT22;58808;59.366;17.970;2022-10-16T03:26:38;12.60;99.90
71142;DHT22;58808;59.366;17.970;2022-10-16T03:29:04;12.50;99.90
71142;DHT22;58808;59.366;17.970;2022-10-16T03:31:30;12.50;99.90
71142;DHT22;58808;59.366;17.970;2022-10-16T03:33:56;12.50;99.90
71142;DHT22;58808;59.366;17.970;2022-10-16T03:36:22;12.50;99.90
71142;DHT22;58808;59.366;17.970;2022-10-16T03:38:47;12.50;99.90
71142;DHT22;58808;59.366;17.970;2022-10-16T03:41:13;12.50;99.90
71142;DHT22;58808;59.366;17.970;2022-10-16T03:43:39;12.50;99.90
71142;DHT22;58808;59.366;17.970;2022-10-16T03:46:04;12.40;99.90
71142;DHT22;58808;59.366;17.970;2022-10-16T03:48:30;12.40;99.90
71142;DHT22;58808;59.366;17.970;2022-10-16T03:50:57;12.40;99.90
71142;DHT22;58808;59.366;17.970;2022-10-16T03:53:23;12.40;99.90
71142;DHT22;58808;59.366;17.970;2022-10-16T03:55:49;12.30;99.90
71142;DHT22;58808;59.366;17.970;2022-10-16T03:58:15;12.30;99.90
71142;DHT22;58808;59.366;17.970;2022-10-16T04:00:42;12.30;99.90
71142;DHT22;58808;59.366;17.970;2022-10-16T04:03:08;12.30;99.90
71142;DHT22;58808;59.366;17.970;2022-10-16T04:05:33;12.30;99.90
71142;DHT22;58808;59.366;17.970;2022-10-16T04:07:59;12.30;99.90
71142;DHT22;58808;59.366;17.970;2022-10-16T04:10:25;12.30;99.90
71142;DHT22;58808;59.366;17.970;2022-10-16T04:12:50;12.30;99.90
71142;DHT22;58808;59.366;17.970;2022-10-16T04:15:16;12.30;99.90
71142;DHT22;58808;59.366;17.970;2022-10-16T04:17:42;12.40;99.90
71142;DHT22;58808;59.366;17.970;2022-10-16T04:20:08;12.30;99.90
71142;DHT22;58808;59.366;17.970;2022-10-16T04:22:33;12.30;99.90
71142;DHT22;58808;59.366;17.970;2022-10-16T04:24:59;12.30;99.90
71142;DHT22;58808;59.366;17.970;2022-10-16T04:27:25;12.30;99.90
71142;DHT22;58808;59.366;17.970;2022-10-16T04:29:51;12.30;99.90
71142;DHT22;58808;59.366;17.970;2022-10-16T04:32:16;12.30;99.90
71142;DHT22;58808;59.366;17.970;2022-10-16T04:34:42;12.30;99.90
71142;DHT22;58808;59.366;17.970;2022-10-16T04:37:08;12.30;99.90
71142;DHT22;58808;59.366;17.970;2022-10-16T04:39:33;12.20;99.90
71142;DHT22;58808;59.366;17.970;2022-10-16T04:41:59;12.20;99.90
71142;DHT22;58808;59.366;17.970;2022-10-16T04:44:25;12.20;99.90
71142;DHT22;58808;59.366;17.970;2022-10-16T04:46:51;12.20;99.90
71142;DHT22;58808;59.366;17.970;2022-10-16T04:49:16;12.20;99.90
71142;DHT22;58808;59.366;17.970;2022-10-16T04:51:42;12.10;99.90
71142;DHT22;58808;59.366;17.970;2022-10-16T04:54:09;12.10;99.90
71142;DHT22;58808;59.366;17.970;2022-10-16T04:56:34;12.10;99.90
71142;DHT22;58808;59.366;17.970;2022-10-16T04:59:05;12.10;99.90
71142;DHT22;58808;59.366;17.970;2022-10-16T05:01:31;12.10;99.90
71142;DHT22;58808;59.366;17.970;2022-10-16T05:03:56;12.10;99.90
71142;DHT22;58808;59.366;17.970;2022-10-16T05:06:22;12.10;99.90
71142;DHT22;58808;59.366;17.970;2022-10-16T05:08:48;12.10;99.90
71142;DHT22;58808;59.366;17.970;2022-10-16T05:11:13;12.10;99.90
71142;DHT22;58808;59.366;17.970;2022-10-16T05:13:39;12.10;99.90
71142;DHT22;58808;59.366;17.970;2022-10-16T05:16:05;12.00;99.90
71142;DHT22;58808;59.366;17.970;2022-10-16T05:18:31;12.00;99.90
71142;DHT22;58808;59.366;17.970;2022-10-16T05:20:57;12.00;99.90
71142;DHT22;58808;59.366;17.970;2022-10-16T05:23:22;12.00;99.90
71142;DHT22;58808;59.366;17.970;2022-10-16T05:25:56;12.00;99.90
71142;DHT22;58808;59.366;17.970;2022-10-16T05:28:28;12.00;99.90
71142;DHT22;58808;59.366;17.970;2022-10-16T05:30:54;12.00;99.90
71142;DHT22;58808;59.366;17.970;2022-10-16T05:33:20;12.00;99.90
71142;DHT22;58808;59.366;17.970;2022-10-16T05:35:46;12.00;99.90
71142;DHT22;58808;59.366;17.970;2022-10-16T05:38:12;12.00;99.90
71142;DHT22;58808;59.366;17.970;2022-10-16T05:40:38;12.00;99.90
71142;DHT22;58808;59.366;17.970;2022-10-16T05:43:03;12.00;99.90
71142;DHT22;58808;59.366;17.970;2022-10-16T05:45:29;12.00;99.90
71142;DHT22;58808;59.366;17.970;2022-10-16T05:47:55;12.00;99.90
71142;DHT22;58808;59.366;17.970;2022-10-16T05:50:21;12.00;99.90
71142;DHT22;58808;59.366;17.970;2022-10-16T05:52:46;12.00;99.90
71142;DHT22;58808;59.366;17.970;2022-10-16T05:55:12;12.00;99.90
71142;DHT22;58808;59.366;17.970;2022-10-16T05:57:37;12.00;99.90
71142;DHT22;58808;59.366;17.970;2022-10-16T06:00:05;12.10;99.90
71142;DHT22;58808;59.366;17.970;2022-10-16T06:02:31;12.10;99.90
71142;DHT22;58808;59.366;17.970;2022-10-16T06:04:56;12.10;99.90
71142;DHT22;58808;59.366;17.970;2022-10-16T06:07:22;12.10;99.90
71142;DHT22;58808;59.366;17.970;2022-10-16T06:09:52;12.10;99.90
71142;DHT22;58808;59.366;17.970;2022-10-16T06:12:18;12.10;99.90
71142;DHT22;58808;59.366;17.970;2022-10-16T06:14:45;12.10;99.90
71142;DHT22;58808;59.366;17.970;2022-10-16T06:17:14;12.10;99.90
71142;DHT22;58808;59.366;17.970;2022-10-16T06:19:40;12.20;99.90
71142;DHT22;58808;59.366;17.970;2022-10-16T06:22:06;12.20;99.90
71142;DHT22;58808;59.366;17.970;2022-10-16T06:24:32;12.20;99.90
71142;DHT22;58808;59.366;17.970;2022-10-16T06:26:58;12.20;99.90
71142;DHT22;58808;59.366;17.970;2022-10-16T06:29:24;12.30;99.90
71142;DHT22;58808;59.366;17.970;2022-10-16T06:31:49;12.30;99.90
71142;DHT22;58808;59.366;17.970;2022-10-16T06:34:15;12.30;99.90
71142;DHT22;58808;59.366;17.970;2022-10-16T06:36:41;12.30;99.90
71142;DHT22;58808;59.366;17.970;2022-10-16T06:39:07;12.30;99.90
71142;DHT22;58808;59.366;17.970;2022-10-16T06:41:33;12.40;99.90
71142;DHT22;58808;59.366;17.970;2022-10-16T06:43:59;12.40;99.90
71142;DHT22;58808;59.366;17.970;2022-10-16T06:46:26;12.40;99.90
71142;DHT22;58808;59.366;17.970;2022-10-16T06:48:52;12.40;99.90
71142;DHT22;58808;59.366;17.970;2022-10-16T06:51:20;12.40;99.90
71142;DHT22;58808;59.366;17.970;2022-10-16T06:53:48;12.40;99.90
71142;DHT22;58808;59.366;17.970;2022-10-16T06:56:20;12.50;99.90
71142;DHT22;58808;59.366;17.970;2022-10-16T06:58:47;12.50;99.90
71142;DHT22;58808;59.366;17.970;2022-10-16T07:01:15;12.50;99.90
71142;DHT22;58808;59.366;17.970;2022-10-16T07:03:42;12.50;99.90
71142;DHT22;58808;59.366;17.970;2022-10-16T07:06:09;12.50;99.90
71142;DHT22;58808;59.366;17.970;2022-10-16T07:08:37;12.50;99.90
71142;DHT22;58808;59.366;17.970;2022-10-16T07:11:08;12.50;99.90
71142;DHT22;58808;59.366;17.970;2022-10-16T07:13:38;12.60;99.90
71142;DHT22;58808;59.366;17.970;2022-10-16T07:16:09;12.50;99.90
71142;DHT22;58808;59.366;17.970;2022-10-16T07:18:35;12.50;99.90
71142;DHT22;58808;59.366;17.970;2022-10-16T07:21:13;12.50;99.90
71142;DHT22;58808;59.366;17.970;2022-10-16T07:23:39;12.50;99.90
71142;DHT22;58808;59.366;17.970;2022-10-16T07:26:06;12.60;99.90
71142;DHT22;58808;59.366;17.970;2022-10-16T07:28:32;12.50;99.90
71142;DHT22;58808;59.366;17.970;2022-10-16T07:31:07;12.60;99.90
71142;DHT22;58808;59.366;17.970;2022-10-16T07:33:33;12.60;99.90
71142;DHT22;58808;59.366;17.970;2022-10-16T07:35:59;12.60;99.90
71142;DHT22;58808;59.366;17.970;2022-10-16T07:38:25;12.60;99.90
71142;DHT22;58808;59.366;17.970;2022-10-16T07:41:05;12.60;99.90
71142;DHT22;58808;59.366;17.970;2022-10-16T07:43:31;12.60;99.90
71142;DHT22;58808;59.366;17.970;2022-10-16T07:45:58;12.60;99.90
71142;DHT22;58808;59.366;17.970;2022-10-16T07:48:26;12.60;99.90
71142;DHT22;58808;59.366;17.970;2022-10-16T07:50:52;12.60;99.90
71142;DHT22;58808;59.366;17.970;2022-10-16T07:53:18;12.60;99.90
71142;DHT22;58808;59.366;17.970;2022-10-16T07:55:43;12.60;99.90
71142;DHT22;58808;59.366;17.970;2022-10-16T07:58:09;12.60;99.90
71142;DHT22;58808;59.366;17.970;2022-10-16T08:00:36;12.60;99.90
71142;DHT22;58808;59.366;17.970;2022-10-16T08:03:02;12.60;99.90
71142;DHT22;58808;59.366;17.970;2022-10-16T08:05:29;12.60;99.90
71142;DHT22;58808;59.366;17.970;2022-10-16T08:07:56;12.60;99.90
71142;DHT22;58808;59.366;17.970;2022-10-16T08:10:24;12.60;99.90
71142;DHT22;58808;59.366;17.970;2022-10-16T08:12:50;12.60;99.90
71142;DHT22;58808;59.366;17.970;2022-10-16T08:15:16;12.50;99.90
71142;DHT22;58808;59.366;17.970;2022-10-16T08:17:42;12.50;99.90
71142;DHT22;58808;59.366;17.970;2022-10-16T08:20:08;12.60;99.90
71142;DHT22;58808;59.366;17.970;2022-10-16T08:22:34;12.50;99.90
71142;DHT22;58808;59.366;17.970;2022-10-16T08:25:00;12.60;99.90
71142;DHT22;58808;59.366;17.970;2022-10-16T08:27:31;12.60;99.90
71142;DHT22;58808;59.366;17.970;2022-10-16T08:29:57;12.60;99.90
71142;DHT22;58808;59.366;17.970;2022-10-16T08:32:23;12.60;99.90
71142;DHT22;58808;59.366;17.970;2022-10-16T08:34:48;12.50;99.90
71142;DHT22;58808;59.366;17.970;2022-10-16T08:37:14;12.60;99.90
71142;DHT22;58808;59.366;17.970;2022-10-16T08:39:40;12.60;99.90
71142;DHT22;58808;59.366;17.970;2022-10-16T08:50:37;12.60;99.90
71142;DHT22;58808;59.366;17.970;2022-10-16T08:53:04;12.60;99.90
71142;DHT22;58808;59.366;17.970;2022-10-16T08:58:18;12.60;99.90
71142;DHT22;58808;59.366;17.970;2022-10-16T09:00:56;12.60;99.90
71142;DHT22;58808;59.366;17.970;2022-10-16T09:09:53;12.60;99.90
71142;DHT22;58808;59.366;17.970;2022-10-16T09:22:48;12.80;99.90
71142;DHT22;58808;59.366;17.970;2022-10-16T09:25:16;12.80;99.90
71142;DHT22;58808;59.366;17.970;2022-10-16T09:27:45;12.80;99.90
71142;DHT22;58808;59.366;17.970;2022-10-16T09:30:19;12.80;99.90
71142;DHT22;58808;59.366;17.970;2022-10-16T09:32:46;12.80;99.90
71142;DHT22;58808;59.366;17.970;2022-10-16T09:35:27;12.80;99.90
71142;DHT22;58808;59.366;17.970;2022-10-16T09:37:56;12.80;99.90
71142;DHT22;58808;59.366;17.970;2022-10-16T09:40:33;12.80;99.90
71142;DHT22;58808;59.366;17.970;2022-10-16T09:46:00;12.80;99.90
71142;DHT22;58808;59.366;17.970;2022-10-16T09:48:31;12.90;99.90
71142;DHT22;58808;59.366;17.970;2022-10-16T09:51:06;12.90;99.90
71142;DHT22;58808;59.366;17.970;2022-10-16T09:53:41;12.90;99.90
71142;DHT22;58808;59.366;17.970;2022-10-16T09:56:10;12.90;99.90
71142;DHT22;58808;59.366;17.970;2022-10-16T09:58:42;13.00;99.90
71142;DHT22;58808;59.366;17.970;2022-10-16T10:01:17;13.00;99.90
71142;DHT22;58808;59.366;17.970;2022-10-16T10:03:44;13.10;99.90
71142;DHT22;58808;59.366;17.970;2022-10-16T10:08:55;13.20;99.90
71142;DHT22;58808;59.366;17.970;2022-10-16T10:11:44;13.20;99.90
71142;DHT22;58808;59.366;17.970;2022-10-16T10:14:17;13.30;99.90
71142;DHT22;58808;59.366;17.970;2022-10-16T10:16:43;13.30;99.90
71142;DHT22;58808;59.366;17.970;2022-10-16T10:19:20;13.20;99.90
71142;DHT22;58808;59.366;17.970;2022-10-16T10:21:47;13.10;99.90
71142;DHT22;58808;59.366;17.970;2022-10-16T10:24:15;13.10;99.90
71142;DHT22;58808;59.366;17.970;2022-10-16T10:29:46;13.10;99.90
71142;DHT22;58808;59.366;17.970;2022-10-16T10:35:18;13.20;99.90
71142;DHT22;58808;59.366;17.970;2022-10-16T10:44:24;13.20;99.90
71142;DHT22;58808;59.366;17.970;2022-10-16T10:52:12;13.30;99.90
71142;DHT22;58808;59.366;17.970;2022-10-16T10:55:21;13.40;99.90
71142;DHT22;58808;59.366;17.970;2022-10-16T11:09:17;14.10;99.90
71142;DHT22;58808;59.366;17.970;2022-10-16T11:14:28;14.20;99.90
71142;DHT22;58808;59.366;17.970;2022-10-16T11:17:01;14.20;99.90
71142;DHT22;58808;59.366;17.970;2022-10-16T11:19:36;14.10;99.90
71142;DHT22;58808;59.366;17.970;2022-10-16T11:22:13;14.10;99.90
71142;DHT22;58808;59.366;17.970;2022-10-16T11:27:14;13.90;99.90
71142;DHT22;58808;59.366;17.970;2022-10-16T11:29:59;13.90;99.90
71142;DHT22;58808;59.366;17.970;2022-10-16T11:42:02;13.90;99.90
71142;DHT22;58808;59.366;17.970;2022-10-16T11:46:46;13.80;99.90
71142;DHT22;58808;59.366;17.970;2022-10-16T11:49:16;13.80;99.90
71142;DHT22;58808;59.366;17.970;2022-10-16T11:51:50;13.80;99.90
71142;DHT22;58808;59.366;17.970;2022-10-16T11:54:39;13.70;99.90
71142;DHT22;58808;59.366;17.970;2022-10-16T11:57:20;13.70;99.90
71142;DHT22;58808;59.366;17.970;2022-10-16T12:08:09;13.80;99.90
71142;DHT22;58808;59.366;17.970;2022-10-16T12:10:37;13.90;99.90
71142;DHT22;58808;59.366;17.970;2022-10-16T12:13:25;13.90;99.90
71142;DHT22;58808;59.366;17.970;2022-10-16T12:15:50;14.00;99.90
71142;DHT22;58808;59.366;17.970;2022-10-16T12:18:25;14.00;99.90
71142;DHT22;58808;59.366;17.970;2022-10-16T12:20:58;14.00;99.90
71142;DHT22;58808;59.366;17.970;2022-10-16T12:23:29;14.00;99.90
71142;DHT22;58808;59.366;17.970;2022-10-16T12:25:57;14.00;99.90
71142;DHT22;58808;59.366;17.970;2022-10-16T12:28:28;14.30;99.90
71142;DHT22;58808;59.366;17.970;2022-10-16T12:31:07;14.40;99.90
71142;DHT22;58808;59.366;17.970;2022-10-16T12:33:41;14.30;99.90
71142;DHT22;58808;59.366;17.970;2022-10-16T12:36:15;14.30;99.90
71142;DHT22;58808;59.366;17.970;2022-10-16T12:38:49;14.20;99.90
71142;DHT22;58808;59.366;17.970;2022-10-16T12:41:31;14.20;99.90
71142;DHT22;58808;59.366;17.970;2022-10-16T12:43:57;14.20;99.90
71142;DHT22;58808;59.366;17.970;2022-10-16T12:49:21;14.20;99.90
71142;DHT22;58808;59.366;17.970;2022-10-16T12:51:47;14.10;99.90
71142;DHT22;58808;59.366;17.970;2022-10-16T12:54:19;14.10;99.90
71142;DHT22;58808;59.366;17.970;2022-10-16T12:56:50;14.10;99.90
71142;DHT22;58808;59.366;17.970;2022-10-16T12:59:35;14.10;99.90
71142;DHT22;58808;59.366;17.970;2022-10-16T13:10:56;14.00;99.90
71142;DHT22;58808;59.366;17.970;2022-10-16T13:20:05;14.00;99.90
71142;DHT22;58808;59.366;17.970;2022-10-16T13:28:07;14.70;99.90
71142;DHT22;58808;59.366;17.970;2022-10-16T13:30:42;14.80;99.90
71142;DHT22;58808;59.366;17.970;2022-10-16T13:33:21;14.80;99.90
71142;DHT22;58808;59.366;17.970;2022-10-16T13:35:54;14.80;99.90
71142;DHT22;58808;59.366;17.970;2022-10-16T13:38:28;14.90;99.90
71142;DHT22;58808;59.366;17.970;2022-10-16T13:41:02;14.80;99.90
71142;DHT22;58808;59.366;17.970;2022-10-16T13:43:35;14.80;99.90
71142;DHT22;58808;59.366;17.970;2022-10-16T13:46:10;14.60;99.90
71142;DHT22;58808;59.366;17.970;2022-10-16T13:48:37;14.60;99.90
71142;DHT22;58808;59.366;17.970;2022-10-16T13:51:06;14.50;99.90
71142;DHT22;58808;59.366;17.970;2022-10-16T13:53:36;14.40;99.90
71142;DHT22;58808;59.366;17.970;2022-10-16T13:56:03;14.30;99.90
71142;DHT22;58808;59.366;17.970;2022-10-16T13:58:30;14.30;99.90
71142;DHT22;58808;59.366;17.970;2022-10-16T14:00:59;14.30;99.90
71142;DHT22;58808;59.366;17.970;2022-10-16T14:03:27;14.30;99.90
71142;DHT22;58808;59.366;17.970;2022-10-16T14:05:56;14.20;99.90
71142;DHT22;58808;59.366;17.970;2022-10-16T14:08:24;14.20;99.90
71142;DHT22;58808;59.366;17.970;2022-10-16T14:10:54;14.10;99.90
71142;DHT22;58808;59.366;17.970;2022-10-16T14:13:31;14.10;99.90
71142;DHT22;58808;59.366;17.970;2022-10-16T14:16:00;14.10;99.90
71142;DHT22;58808;59.366;17.970;2022-10-16T14:18:27;14.10;99.90
71142;DHT22;58808;59.366;17.970;2022-10-16T14:21:15;13.90;99.90
71142;DHT22;58808;59.366;17.970;2022-10-16T14:23:42;13.70;99.90
71142;DHT22;58808;59.366;17.970;2022-10-16T14:28:34;13.70;99.90
71142;DHT22;58808;59.366;17.970;2022-10-16T14:31:01;13.70;99.90
71142;DHT22;58808;59.366;17.970;2022-10-16T14:38:35;13.80;99.90
71142;DHT22;58808;59.366;17.970;2022-10-16T14:41:03;13.70;99.90
71142;DHT22;58808;59.366;17.970;2022-10-16T14:43:42;13.70;99.90
71142;DHT22;58808;59.366;17.970;2022-10-16T14:46:18;13.70;99.90
71142;DHT22;58808;59.366;17.970;2022-10-16T14:48:46;13.70;99.90
71142;DHT22;58808;59.366;17.970;2022-10-16T14:51:17;13.70;99.90
71142;DHT22;58808;59.366;17.970;2022-10-16T14:53:43;13.70;99.90
71142;DHT22;58808;59.366;17.970;2022-10-16T14:56:21;13.70;99.90
71142;DHT22;58808;59.366;17.970;2022-10-16T14:58:48;13.70;99.90
71142;DHT22;58808;59.366;17.970;2022-10-16T15:01:15;13.60;99.90
71142;DHT22;58808;59.366;17.970;2022-10-16T15:03:40;13.70;99.90
71142;DHT22;58808;59.366;17.970;2022-10-16T15:06:14;13.60;99.90
71142;DHT22;58808;59.366;17.970;2022-10-16T15:08:41;13.60;99.90
71142;DHT22;58808;59.366;17.970;2022-10-16T15:11:18;13.60;99.90
71142;DHT22;58808;59.366;17.970;2022-10-16T15:13:44;13.50;99.90
71142;DHT22;58808;59.366;17.970;2022-10-16T15:16:15;13.60;99.90
71142;DHT22;58808;59.366;17.970;2022-10-16T15:18:42;13.50;99.90
71142;DHT22;58808;59.366;17.970;2022-10-16T15:21:08;13.40;99.90
71142;DHT22;58808;59.366;17.970;2022-10-16T15:23:38;12.90;99.90
71142;DHT22;58808;59.366;17.970;2022-10-16T15:26:04;11.50;99.90
71142;DHT22;58808;59.366;17.970;2022-10-16T15:28:29;11.30;99.90
71142;DHT22;58808;59.366;17.970;2022-10-16T15:30:56;10.60;99.90
71142;DHT22;58808;59.366;17.970;2022-10-16T15:33:27;10.30;99.90
71142;DHT22;58808;59.366;17.970;2022-10-16T15:35:59;10.20;99.90
71142;DHT22;58808;59.366;17.970;2022-10-16T15:38:26;10.20;99.90
71142;DHT22;58808;59.366;17.970;2022-10-16T15:40:52;10.20;99.90
71142;DHT22;58808;59.366;17.970;2022-10-16T15:43:18;10.20;99.90
71142;DHT22;58808;59.366;17.970;2022-10-16T15:45:46;10.00;99.90
71142;DHT22;58808;59.366;17.970;2022-10-16T15:48:14;10.00;99.90
71142;DHT22;58808;59.366;17.970;2022-10-16T15:50:40;10.10;99.90
71142;DHT22;58808;59.366;17.970;2022-10-16T15:53:08;10.20;99.90
71142;DHT22;58808;59.366;17.970;2022-10-16T15:55:34;10.10;99.90
71142;DHT22;58808;59.366;17.970;2022-10-16T15:58:03;9.90;99.90
71142;DHT22;58808;59.366;17.970;2022-10-16T16:00:29;9.80;99.90
71142;DHT22;58808;59.366;17.970;2022-10-16T16:02:55;9.90;99.90
71142;DHT22;58808;59.366;17.970;2022-10-16T16:05:21;9.90;99.90
71142;DHT22;58808;59.366;17.970;2022-10-16T16:07:47;9.80;99.90
71142;DHT22;58808;59.366;17.970;2022-10-16T16:10:13;9.90;99.90
71142;DHT22;58808;59.366;17.970;2022-10-16T16:12:39;9.70;99.90
71142;DHT22;58808;59.366;17.970;2022-10-16T16:15:06;9.80;99.90
71142;DHT22;58808;59.366;17.970;2022-10-16T16:17:33;9.80;99.90
71142;DHT22;58808;59.366;17.970;2022-10-16T16:20:00;9.60;99.90
71142;DHT22;58808;59.366;17.970;2022-10-16T16:22:26;9.60;99.90
71142;DHT22;58808;59.366;17.970;2022-10-16T16:24:52;9.60;99.90
71142;DHT22;58808;59.366;17.970;2022-10-16T16:27:17;9.70;99.90
71142;DHT22;58808;59.366;17.970;2022-10-16T16:29:45;9.70;99.90
71142;DHT22;58808;59.366;17.970;2022-10-16T16:32:11;9.60;99.90
71142;DHT22;58808;59.366;17.970;2022-10-16T16:34:36;9.70;99.90
71142;DHT22;58808;59.366;17.970;2022-10-16T16:37:02;9.60;99.90
71142;DHT22;58808;59.366;17.970;2022-10-16T16:39:28;9.60;99.90
71142;DHT22;58808;59.366;17.970;2022-10-16T16:41:56;9.70;99.90
71142;DHT22;58808;59.366;17.970;2022-10-16T16:44:21;9.70;99.90
71142;DHT22;58808;59.366;17.970;2022-10-16T16:46:47;9.70;99.90
71142;DHT22;58808;59.366;17.970;2022-10-16T16:49:13;9.70;99.90
71142;DHT22;58808;59.366;17.970;2022-10-16T16:51:40;9.70;99.90
71142;DHT22;58808;59.366;17.970;2022-10-16T16:54:07;9.70;99.90
71142;DHT22;58808;59.366;17.970;2022-10-16T16:56:33;9.70;99.90
71142;DHT22;58808;59.366;17.970;2022-10-16T16:58:59;9.80;99.90
71142;DHT22;58808;59.366;17.970;2022-10-16T17:01:27;9.70;99.90
71142;DHT22;58808;59.366;17.970;2022-10-16T17:03:55;9.80;99.90
71142;DHT22;58808;59.366;17.970;2022-10-16T17:06:23;9.80;99.90
71142;DHT22;58808;59.366;17.970;2022-10-16T17:08:50;9.80;99.90
71142;DHT22;58808;59.366;17.970;2022-10-16T17:11:25;9.80;99.90
71142;DHT22;58808;59.366;17.970;2022-10-16T17:13:53;9.80;99.90
71142;DHT22;58808;59.366;17.970;2022-10-16T17:16:20;9.70;99.90
71142;DHT22;58808;59.366;17.970;2022-10-16T17:18:46;9.80;99.90
71142;DHT22;58808;59.366;17.970;2022-10-16T17:21:12;9.80;99.90
71142;DHT22;58808;59.366;17.970;2022-10-16T17:23:38;9.80;99.90
71142;DHT22;58808;59.366;17.970;2022-10-16T17:26:13;9.80;99.90
71142;DHT22;58808;59.366;17.970;2022-10-16T17:28:39;9.80;99.90
71142;DHT22;58808;59.366;17.970;2022-10-16T17:31:17;9.80;99.90
71142;DHT22;58808;59.366;17.970;2022-10-16T17:33:44;9.80;99.90
71142;DHT22;58808;59.366;17.970;2022-10-16T17:36:10;9.80;99.90
71142;DHT22;58808;59.366;17.970;2022-10-16T17:38:36;9.80;99.90
71142;DHT22;58808;59.366;17.970;2022-10-16T17:43:40;9.70;99.90